Crown Princess — ZCDM6 — position and weather

sailwx.info

Track history (hours):
 
Tides and Currents Weather Stations Pressure Air Temp Water Temp Dewpoint Dewpoint Depression Visibility Wind Speed Wind Dir Waves Ship Positions

Crown Princess

Last reported at 2017-Jul-20 18:28 UTC. Time now 2017-Jul-20 18:38 UTC.
Position N 57°53' E 010°15'.

Type: Ship. MMSI: 310500000.

Date/timePositionNaut miles runAvg speedWind from/ knotsBaromVisibWave heightAir tempDewpointWater temp
2017-Jul-20 18:28N 57°53' E 010°15'920.6
2017-Jul-20 18:00N 57°53' E 010°33'1120.6
2017-Jul-20 17:29N 57°48' E 010°51'1020.6
2017-Jul-20 17:00N 57°41' E 011°04'1020.9
2017-Jul-20 16:30N 57°33' E 011°17'1020.3
2017-Jul-20 16:00N 57°25' E 011°29'1121.1
2017-Jul-20 15:30N 57°15' E 011°35'1120.7
2017-Jul-20 14:58N 57°05' E 011°42'1920.2
2017-Jul-20 14:00N 56°47' E 011°56'918.7
2017-Jul-20 13:30N 56°40' E 011°44'1119.7
2017-Jul-20 12:57N 56°33' E 011°30'919.4
2017-Jul-20 12:29N 56°27' E 011°17'1218.4
2017-Jul-20 11:49N 56°16' E 011°07'1420.8
2017-Jul-20 11:09N 56°02' E 011°06'420.8
2017-Jul-20 10:58N 55°59' E 011°03'1020.9
2017-Jul-20 10:30N 55°51' E 010°52'1120.6
2017-Jul-20 09:58N 55°41' E 010°47'920.1
2017-Jul-20 09:30N 55°32' E 010°52'1019.6
2017-Jul-20 08:58N 55°23' E 011°02'1017.8
2017-Jul-20 08:25N 55°13' E 011°06'4 9.9
2017-Jul-20 08:00N 55°10' E 011°03'815.7
2017-Jul-20 07:31N 55°02' E 011°02'917.4
2017-Jul-20 07:01N 54°54' E 010°54'917.7
2017-Jul-20 06:31N 54°46' E 010°53'917.0
2017-Jul-20 06:01N 54°39' E 011°02'1121.6
2017-Jul-20 05:31N 54°34' E 011°18'1121.8
2017-Jul-20 05:01N 54°29' E 011°35'1620.6
2017-Jul-20 04:15N 54°26' E 012°02'518.1
2017-Jul-20 03:58N 54°28' E 012°10'1318.8
2017-Jul-20 03:16N 54°40' E 012°20'520.1
2017-Jul-20 03:00N 54°43' E 012°27'1020.0
2017-Jul-20 02:30N 54°48' E 012°43'1020.5
2017-Jul-20 02:00N 54°47' E 013°00'1121.3
2017-Jul-20 01:31N 54°47' E 013°18'1121.1
2017-Jul-20 01:01N 54°45' E 013°37'1121.0
2017-Jul-20 00:30N 54°42' E 013°54'1121.0
2017-Jul-20 00:00N 54°39' E 014°12'1021.1
2017-Jul-19 23:31N 54°38' E 014°30'1121.2
2017-Jul-19 23:01N 54°39' E 014°48'1121.0
2017-Jul-19 22:30N 54°40' E 015°06'1020.7
2017-Jul-19 22:00N 54°42' E 015°23'1020.8
2017-Jul-19 21:30N 54°45' E 015°41'1020.9
2017-Jul-19 21:00N 54°47' E 015°59'1121.0
2017-Jul-19 20:30N 54°48' E 016°17'1020.8
2017-Jul-19 20:00N 54°49' E 016°35'1020.9
2017-Jul-19 19:30N 54°51' E 016°53'1020.9
2017-Jul-19 19:00N 54°54' E 017°10'1020.8
2017-Jul-19 18:31N 54°56' E 017°28'1121.6
2017-Jul-19 18:00N 54°59' E 017°46'1121.5
2017-Jul-19 17:30N 54°58' E 018°05'1121.5
2017-Jul-19 17:00N 54°58' E 018°23'1021.0
2017-Jul-19 16:31N 54°55' E 018°41'1121.8
2017-Jul-19 16:00N 54°48' E 018°55'917.2
2017-Jul-19 15:30N 54°39' E 018°57'1020.1
2017-Jul-19 15:01N 54°32' E 018°46'612.7
2017-Jul-19 14:31N 54°32' E 018°35'1 2.4
2017-Jul-19 13:59N 54°32' E 018°33'0 0.0
2017-Jul-19 13:28N 54°32' E 018°33'0 0.0
2017-Jul-19 12:58N 54°32' E 018°33'0 0.0
2017-Jul-19 12:28N 54°32' E 018°33'0 0.0
2017-Jul-19 11:58N 54°32' E 018°33'0 0.0
2017-Jul-19 11:28N 54°32' E 018°33'0 0.0
2017-Jul-19 11:00N 54°32' E 018°33'0 0.0
2017-Jul-19 10:30N 54°32' E 018°33'0 0.0
2017-Jul-19 10:00N 54°32' E 018°33'0 0.0
2017-Jul-19 09:30N 54°32' E 018°33'0 0.0
2017-Jul-19 08:59N 54°32' E 018°33'0 0.0
2017-Jul-19 08:29N 54°32' E 018°33'0 0.0
2017-Jul-19 07:59N 54°32' E 018°33'0 0.0
2017-Jul-19 07:29N 54°32' E 018°33'0 0.0
2017-Jul-19 06:59N 54°32' E 018°33'0 0.0
2017-Jul-19 06:28N 54°32' E 018°33'0 0.0
2017-Jul-19 05:58N 54°32' E 018°33'0 0.0
2017-Jul-19 05:28N 54°32' E 018°33'0 0.0
2017-Jul-19 04:58N 54°32' E 018°33'0 0.4
2017-Jul-19 04:30N 54°32' E 018°33'4 8.1
2017-Jul-19 04:01N 54°32' E 018°40'510.4
2017-Jul-19 03:30N 54°33' E 018°49'611.5
2017-Jul-19 03:00N 54°38' E 018°54'611.6
2017-Jul-19 02:30N 54°43' E 018°59'611.6
2017-Jul-19 02:00N 54°49' E 019°02'6357.5
2017-Jul-19 02:00N 54°54' E 019°06'1 1.3 260 / 221015.310.8 15.513.717.0
2017-Jul-19 01:30N 54°54' E 019°05'611.0
2017-Jul-19 01:00N 54°59' E 019°08'510.9
2017-Jul-19 00:30N 55°05' E 019°10'611.3
2017-Jul-19 00:00N 55°10' E 019°13'22811.2
2017-Jul-18 03:39N 58°49' E 021°12'311.1
2017-Jul-18 03:22N 58°52' E 021°15'411.1
2017-Jul-18 03:00N 58°55' E 021°20'511.1
2017-Jul-18 02:31N 58°60' E 021°25'611.1
2017-Jul-18 02:01N 59°04' E 021°31'611.1
2017-Jul-18 01:30N 59°09' E 021°37'611.1
2017-Jul-18 01:00N 59°13' E 021°45'510.4
2017-Jul-18 00:31N 59°16' E 021°53'510.4
2017-Jul-18 00:01N 59°19' E 022°01'510.8
2017-Jul-17 23:31N 59°23' E 022°09'510.6
2017-Jul-17 23:00N 59°26' E 022°17'510.5
2017-Jul-17 22:30N 59°29' E 022°25'510.5
2017-Jul-17 22:00N 59°32' E 022°35'510.8
2017-Jul-17 21:31N 59°34' E 022°45'611.0
2017-Jul-17 21:00N 59°35' E 022°55'612.5
2017-Jul-17 20:31N 59°36' E 023°07'611.5
2017-Jul-17 20:01N 59°38' E 023°18'611.1
2017-Jul-17 19:31N 59°39' E 023°29'611.5
2017-Jul-17 19:00N 59°41' E 023°40'611.6
2017-Jul-17 18:31N 59°43' E 023°51'611.4
2017-Jul-17 18:01N 59°44' E 024°01'611.2
2017-Jul-17 17:31N 59°46' E 024°12'611.1
2017-Jul-17 17:00N 59°47' E 024°23'611.1
2017-Jul-17 16:31N 59°48' E 024°34'611.4
2017-Jul-17 16:00N 59°50' E 024°45'510.8
2017-Jul-17 15:31N 59°52' E 024°54'611.1
2017-Jul-17 15:01N 59°57' E 024°56'611.4
2017-Jul-17 14:31N 60°03' E 024°53'611.7
2017-Jul-17 14:00N 60°09' E 024°55'0 0.3
2017-Jul-17 13:23N 60°09' E 024°55'0 0.0
2017-Jul-17 12:58N 60°09' E 024°55'0 0.0
2017-Jul-17 12:28N 60°09' E 024°55'0 0.0
2017-Jul-17 11:59N 60°09' E 024°55'0 0.0
2017-Jul-17 11:28N 60°09' E 024°55'0 0.0
2017-Jul-17 11:00N 60°09' E 024°55'0 0.0
2017-Jul-17 10:30N 60°09' E 024°55'0 0.0
2017-Jul-17 10:00N 60°09' E 024°55'0 0.0
2017-Jul-17 09:30N 60°09' E 024°55'0 0.0
2017-Jul-17 09:00N 60°09' E 024°55'0 0.0
2017-Jul-17 08:31N 60°09' E 024°55'0 0.0
2017-Jul-17 07:59N 60°09' E 024°55'0 0.0
2017-Jul-17 07:29N 60°09' E 024°55'0 0.0
2017-Jul-17 06:58N 60°09' E 024°55'0 0.0
2017-Jul-17 06:28N 60°09' E 024°55'0 0.0
2017-Jul-17 05:58N 60°09' E 024°55'0 0.0
2017-Jul-17 05:28N 60°09' E 024°55'0 0.0
2017-Jul-17 04:58N 60°09' E 024°55'0 0.0
2017-Jul-17 04:30N 60°09' E 024°55'0 1.0
2017-Jul-17 04:01N 60°09' E 024°54'4 7.1
2017-Jul-17 03:31N 60°05' E 024°54'713.6
2017-Jul-17 03:00N 59°59' E 024°57'612.2
2017-Jul-17 02:30N 59°55' E 025°07'713.9
2017-Jul-17 02:00N 59°55' E 025°21'714.8
2017-Jul-17 01:31N 59°54' E 025°36'815.8
2017-Jul-17 01:01N 59°56' E 025°51'714.2
2017-Jul-17 00:31N 59°58' E 026°05'714.3
2017-Jul-17 00:01N 59°59' E 026°19'714.2
2017-Jul-16 23:31N 60°01' E 026°33'714.3
2017-Jul-16 23:01N 60°01' E 026°47'917.7
2017-Jul-16 22:31N 59°60' E 027°05'714.9
2017-Jul-16 22:01N 60°04' E 027°17'714.8
2017-Jul-16 21:31N 60°08' E 027°30'816.2
2017-Jul-16 21:01N 60°11' E 027°44'917.9
2017-Jul-16 20:31N 60°10' E 028°02'612.7
2017-Jul-16 20:00N 60°08' E 028°14'815.0
2017-Jul-16 19:30N 60°04' E 028°27'714.9
2017-Jul-16 19:00N 60°03' E 028°42'815.2
2017-Jul-16 18:30N 60°02' E 028°57'815.0
2017-Jul-16 18:01N 60°02' E 029°12'714.8
2017-Jul-16 17:30N 60°02' E 029°27'611.8
2017-Jul-16 17:00N 60°00' E 029°38'510.3
2017-Jul-16 16:30N 59°58' E 029°47'611.8
2017-Jul-16 16:00N 59°56' E 029°58'4 8.8
2017-Jul-16 15:30N 59°57' E 030°07'2 4.3
2017-Jul-16 15:00N 59°57' E 030°11'0 0.0
2017-Jul-16 14:29N 59°57' E 030°11'0 0.0
2017-Jul-16 13:58N 59°57' E 030°11'0 0.0
2017-Jul-16 13:28N 59°57' E 030°11'0 0.0
2017-Jul-16 12:58N 59°57' E 030°11'0 0.0
2017-Jul-16 12:28N 59°57' E 030°11'0 0.0
2017-Jul-16 11:58N 59°57' E 030°11'0 0.0
2017-Jul-16 11:30N 59°57' E 030°11'0 0.0
2017-Jul-16 11:00N 59°57' E 030°11'0 0.0
2017-Jul-16 10:30N 59°57' E 030°11'0 0.0
2017-Jul-16 10:00N 59°57' E 030°11'0 0.0
2017-Jul-16 09:30N 59°57' E 030°11'0 0.0
2017-Jul-16 08:59N 59°57' E 030°11'0 0.0
2017-Jul-16 08:29N 59°57' E 030°11'0 0.0
2017-Jul-16 07:59N 59°57' E 030°11'0 0.0
2017-Jul-16 07:29N 59°57' E 030°11'0 0.0
2017-Jul-16 06:58N 59°57' E 030°11'0 0.0
2017-Jul-16 06:28N 59°57' E 030°11'0 0.0
2017-Jul-16 05:58N 59°57' E 030°11'0 0.0
2017-Jul-16 05:28N 59°57' E 030°11'0 0.0
2017-Jul-16 04:58N 59°57' E 030°11'0 0.0
2017-Jul-16 04:30N 59°57' E 030°11'0 0.0
2017-Jul-16 03:57N 59°57' E 030°11'0 0.0
2017-Jul-16 03:27N 59°57' E 030°11'0 0.0
2017-Jul-16 03:00N 59°57' E 030°11'0 0.0
2017-Jul-16 02:29N 59°57' E 030°11'0 0.0
2017-Jul-16 01:59N 59°57' E 030°11'0 0.0
2017-Jul-16 01:29N 59°57' E 030°11'0 0.0
2017-Jul-16 00:59N 59°57' E 030°11'0 0.0
2017-Jul-16 00:29N 59°57' E 030°11'0 0.0
2017-Jul-15 23:58N 59°57' E 030°11'0 0.0
2017-Jul-15 23:28N 59°57' E 030°11'0 0.0
2017-Jul-15 22:58N 59°57' E 030°11'0 0.0
2017-Jul-15 22:28N 59°57' E 030°11'0 0.0
2017-Jul-15 21:58N 59°57' E 030°11'0 0.0
2017-Jul-15 21:29N 59°57' E 030°11'0 0.0
2017-Jul-15 20:59N 59°57' E 030°11'0 0.0
2017-Jul-15 20:29N 59°57' E 030°11'0 0.0
2017-Jul-15 19:58N 59°57' E 030°11'0 0.0
2017-Jul-15 19:28N 59°57' E 030°11'0 0.0
2017-Jul-15 18:55N 59°57' E 030°11'0 0.0
2017-Jul-15 18:28N 59°57' E 030°11'0 0.0
2017-Jul-15 17:58N 59°57' E 030°11'0 0.0
2017-Jul-15 17:30N 59°57' E 030°11'0 0.0
2017-Jul-15 17:00N 59°57' E 030°11'0 0.0
2017-Jul-15 16:30N 59°57' E 030°11'0 0.0
2017-Jul-15 16:00N 59°57' E 030°11'0 0.0
2017-Jul-15 15:29N 59°57' E 030°11'0 0.0
2017-Jul-15 14:59N 59°57' E 030°11'0 0.0
2017-Jul-15 13:59N 59°57' E 030°11'0 0.0
2017-Jul-15 13:29N 59°57' E 030°11'0 0.0
2017-Jul-15 12:58N 59°57' E 030°11'0 0.0
2017-Jul-15 12:28N 59°57' E 030°11'0 0.0
2017-Jul-15 11:58N 59°57' E 030°11'0 0.0
2017-Jul-15 11:28N 59°57' E 030°11'0 0.0
2017-Jul-15 11:01N 59°57' E 030°11'0 0.0
2017-Jul-15 10:30N 59°57' E 030°11'0 0.0
2017-Jul-15 10:00N 59°57' E 030°11'0 0.0
2017-Jul-15 09:30N 59°57' E 030°11'0 0.0
2017-Jul-15 09:00N 59°57' E 030°11'0 0.0
2017-Jul-15 08:29N 59°57' E 030°11'0 0.0
2017-Jul-15 07:59N 59°57' E 030°11'0 0.0
2017-Jul-15 07:30N 59°57' E 030°11'0 0.0
2017-Jul-15 06:58N 59°57' E 030°11'0 0.0
2017-Jul-15 06:28N 59°57' E 030°11'0 0.0
2017-Jul-15 05:58N 59°57' E 030°11'0 0.0
2017-Jul-15 05:30N 59°57' E 030°11'0 0.0
2017-Jul-15 05:00N 59°57' E 030°11'0 0.0
2017-Jul-15 04:30N 59°57' E 030°11'0 0.0
2017-Jul-15 04:00N 59°57' E 030°11'0 0.0
2017-Jul-15 03:30N 59°57' E 030°11'0 0.4
2017-Jul-15 03:00N 59°57' E 030°11'4 7.2
2017-Jul-15 02:30N 59°56' E 030°04'5 9.1
2017-Jul-15 02:00N 59°56' E 029°55'510.0
2017-Jul-15 01:30N 59°59' E 029°46'5 9.9
2017-Jul-15 01:00N 60°00' E 029°37'510.5
2017-Jul-15 00:30N 60°01' E 029°26'713.3
2017-Jul-15 00:00N 60°02' E 029°13'815.3
2017-Jul-14 23:31N 60°02' E 028°58'815.1
2017-Jul-14 23:00N 60°02' E 028°43'815.0
2017-Jul-14 22:31N 60°03' E 028°28'714.8
2017-Jul-14 22:01N 60°07' E 028°16'815.1
2017-Jul-14 21:31N 60°09' E 028°01'815.5
2017-Jul-14 21:01N 60°11' E 027°46'816.4
2017-Jul-14 20:31N 60°07' E 027°32'816.5
2017-Jul-14 20:01N 60°03' E 027°17'815.3
2017-Jul-14 19:30N 59°59' E 027°04'714.4
2017-Jul-14 19:00N 59°59' E 026°50'815.2
2017-Jul-14 18:30N 59°59' E 026°35'917.3
2017-Jul-14 18:00N 59°56' E 026°18'918.9
2017-Jul-14 17:30N 59°54' E 026°00'1020.1
2017-Jul-14 17:01N 59°52' E 025°41'917.6
2017-Jul-14 16:30N 59°49' E 025°24'1020.5
2017-Jul-14 16:00N 59°48' E 025°04'816.0
2017-Jul-14 15:30N 59°43' E 024°51'816.7
2017-Jul-14 15:00N 59°36' E 024°41'815.7
2017-Jul-14 14:30N 59°29' E 024°46'2 3.2
2017-Jul-14 13:58N 59°27' E 024°46'0 0.0
2017-Jul-14 13:31N 59°27' E 024°46'0 0.0
2017-Jul-14 13:00N 59°27' E 024°46'0 0.0
2017-Jul-14 12:30N 59°27' E 024°46'0 0.0
2017-Jul-14 12:00N 59°27' E 024°46'0 0.0
2017-Jul-14 11:30N 59°27' E 024°46'0 0.0
2017-Jul-14 11:00N 59°27' E 024°46'0 0.0
2017-Jul-14 10:30N 59°27' E 024°46'0 0.0
2017-Jul-14 09:59N 59°27' E 024°46'0 0.0
2017-Jul-14 09:30N 59°27' E 024°46'0 0.0
2017-Jul-14 09:00N 59°27' E 024°46'0 0.0
2017-Jul-14 08:28N 59°27' E 024°46'0 0.0
2017-Jul-14 07:58N 59°27' E 024°46'0 0.0
2017-Jul-14 07:29N 59°27' E 024°46'0 0.0
2017-Jul-14 06:58N 59°27' E 024°46'0 0.0
2017-Jul-14 06:30N 59°27' E 024°46'1 1.9
2017-Jul-14 06:00N 59°28' E 024°46'611.2
2017-Jul-14 05:30N 59°30' E 024°36'613.0
2017-Jul-14 05:01N 59°30' E 024°23'714.6
2017-Jul-14 04:31N 59°29' E 024°09'816.9
2017-Jul-14 04:00N 59°29' E 023°52'816.7
2017-Jul-14 03:31N 59°28' E 023°36'1019.1
2017-Jul-14 03:00N 59°28' E 023°17'1019.9
2017-Jul-14 02:30N 59°27' E 022°57'918.8
2017-Jul-14 02:00N 59°24' E 022°40'918.8
2017-Jul-14 01:30N 59°23' E 022°21'1019.2
2017-Jul-14 01:00N 59°23' E 022°03'1019.1
2017-Jul-14 00:31N 59°24' E 021°44'918.7
2017-Jul-14 00:01N 59°25' E 021°26'815.5
2017-Jul-13 23:31N 59°25' E 021°10'816.8
2017-Jul-13 23:01N 59°26' E 020°54'1019.1
2017-Jul-13 22:30N 59°26' E 020°35'1019.3
2017-Jul-13 22:01N 59°28' E 020°16'815.4
2017-Jul-13 21:30N 59°33' E 020°05'918.5
2017-Jul-13 21:00N 59°40' E 019°53'1020.8
2017-Jul-13 20:30N 59°47' E 019°37'815.5
2017-Jul-13 20:00N 59°46' E 019°22'816.5
2017-Jul-13 19:30N 59°43' E 019°06'613.0
2017-Jul-13 19:01N 59°40' E 018°56'510.2
2017-Jul-13 18:31N 59°37' E 018°48'611.4
2017-Jul-13 18:01N 59°34' E 018°38'5 9.6
2017-Jul-13 17:31N 59°31' E 018°30'510.7
2017-Jul-13 17:00N 59°26' E 018°24'4 8.7
2017-Jul-13 16:30N 59°22' E 018°27'3 6.5
2017-Jul-13 16:01N 59°23' E 018°21'510.0
2017-Jul-13 15:30N 59°20' E 018°12'2 3.5
2017-Jul-13 14:53N 59°21' E 018°08'0 0.0
2017-Jul-13 14:29N 59°21' E 018°08'0 0.0
2017-Jul-13 13:53N 59°21' E 018°08'0 0.0
2017-Jul-13 13:23N 59°21' E 018°08'0 0.0
2017-Jul-13 12:52N 59°21' E 018°08'0 0.0
2017-Jul-13 12:22N 59°21' E 018°08'0 0.0
2017-Jul-13 11:58N 59°21' E 018°08'0 0.0
2017-Jul-13 11:28N 59°21' E 018°08'0 0.0
2017-Jul-13 10:52N 59°21' E 018°08'0 0.0
2017-Jul-13 10:27N 59°21' E 018°08'0 0.0
2017-Jul-13 09:57N 59°21' E 018°08'0 0.0
2017-Jul-13 09:27N 59°21' E 018°08'0 0.0
2017-Jul-13 08:57N 59°21' E 018°08'0 0.0
2017-Jul-13 08:27N 59°21' E 018°08'0 0.0
2017-Jul-13 07:38N 59°21' E 018°08'0 0.0
2017-Jul-13 07:26N 59°21' E 018°08'0 0.0
2017-Jul-13 06:56N 59°21' E 018°08'0 0.5
2017-Jul-13 06:30N 59°21' E 018°08'2 5.0
2017-Jul-13 06:00N 59°20' E 018°13'510.7
2017-Jul-13 05:30N 59°22' E 018°23'2 4.8
2017-Jul-13 05:00N 59°24' E 018°26'5 9.3
2017-Jul-13 04:30N 59°29' E 018°27'510.2
2017-Jul-13 04:00N 59°32' E 018°34'510.5
2017-Jul-13 03:30N 59°35' E 018°43'612.2
2017-Jul-13 02:59N 59°39' E 018°53'510.9
2017-Jul-13 02:30N 59°42' E 019°01'816.9
2017-Jul-13 02:00N 59°45' E 019°17'611.3
2017-Jul-13 01:30N 59°47' E 019°27'815.3
2017-Jul-13 01:00N 59°48' E 019°42'815.8
2017-Jul-13 00:30N 59°43' E 019°53'815.1
2017-Jul-13 00:00N 59°37' E 020°03'816.7
2017-Jul-12 23:31N 59°30' E 020°09'1019.7
2017-Jul-12 23:00N 59°21' E 020°02'1121.4
2017-Jul-12 22:31N 59°12' E 019°49'1019.9
2017-Jul-12 22:00N 59°04' E 019°37'919.0
2017-Jul-12 21:30N 58°57' E 019°26'918.3
2017-Jul-12 21:01N 58°49' E 019°16'1019.8
2017-Jul-12 20:30N 58°41' E 019°04'918.9
2017-Jul-12 20:00N 58°34' E 018°53'1020.9
2017-Jul-12 19:30N 58°25' E 018°41'917.4
2017-Jul-12 19:01N 58°18' E 018°34'1019.0
2017-Jul-12 18:31N 58°09' E 018°28'1121.9
2017-Jul-12 18:00N 57°59' E 018°19'1019.0
2017-Jul-12 17:30N 57°50' E 018°10'1018.9
2017-Jul-12 17:00N 57°42' E 018°02'7521.1
2017-Jul-12 13:27N 56°31' E 017°16'1021.3
2017-Jul-12 13:00N 56°22' E 017°11'1121.1
2017-Jul-12 12:30N 56°12' E 017°04'1121.1
2017-Jul-12 12:00N 56°05' E 016°52'1121.2
2017-Jul-12 11:30N 55°59' E 016°36'1121.1
2017-Jul-12 11:00N 55°53' E 016°20'1121.4
2017-Jul-12 10:30N 55°48' E 016°03'1122.0
2017-Jul-12 10:00N 55°43' E 015°46'1122.0
2017-Jul-12 09:30N 55°38' E 015°28'1122.1
2017-Jul-12 09:00N 55°34' E 015°10'1122.2
2017-Jul-12 08:30N 55°29' E 014°52'1121.8
2017-Jul-12 08:00N 55°23' E 014°37'1122.0
2017-Jul-12 07:30N 55°15' E 014°24'1121.9
2017-Jul-12 07:00N 55°06' E 014°13'1121.2
2017-Jul-12 06:30N 54°60' E 013°57'1122.1
2017-Jul-12 06:00N 54°56' E 013°39'1422.1
2017-Jul-12 05:21N 54°52' E 013°15'1321.8
2017-Jul-12 04:45N 54°47' E 012°54'720.6
2017-Jul-12 04:26N 54°45' E 012°43'1220.5
2017-Jul-12 03:52N 54°39' E 012°26'720.0
2017-Jul-12 03:30N 54°34' E 012°17'1817.9
2017-Jul-12 02:30N 54°24' E 011°51'1021.5
2017-Jul-12 02:00N 54°28' E 011°34'1121.4
2017-Jul-12 01:30N 54°33' E 011°18'1020.6
2017-Jul-12 01:00N 54°38' E 011°02'917.5
2017-Jul-12 00:30N 54°44' E 010°52'713.9
2017-Jul-12 00:00N 54°51' E 010°52'917.0
2017-Jul-11 23:30N 54°58' E 010°59'918.5
2017-Jul-11 23:00N 55°07' E 011°02'917.9
2017-Jul-11 22:30N 55°16' E 011°04'5614.1
2017-Jul-11 18:30N 56°08' E 011°45'1019.5
2017-Jul-11 18:00N 56°10' E 012°02'1019.3
2017-Jul-11 17:30N 56°12' E 012°19'1020.4
2017-Jul-11 17:00N 56°06' E 012°34'917.0
2017-Jul-11 16:30N 55°59' E 012°41'713.5
2017-Jul-11 16:00N 55°52' E 012°42'713.4
2017-Jul-11 15:31N 55°45' E 012°41'4 8.1
2017-Jul-11 15:01N 55°42' E 012°36'0 0.0
2017-Jul-11 14:30N 55°42' E 012°36'0 0.0
2017-Jul-11 14:00N 55°42' E 012°36'0 0.0
2017-Jul-11 13:29N 55°42' E 012°36'0 0.0
2017-Jul-11 12:59N 55°42' E 012°36'0 0.0
2017-Jul-11 12:29N 55°42' E 012°36'0 0.0
2017-Jul-11 11:59N 55°42' E 012°36'0 0.0
2017-Jul-11 11:28N 55°42' E 012°36'0 0.0
2017-Jul-11 10:58N 55°42' E 012°36'0 0.0
2017-Jul-11 10:28N 55°42' E 012°36'0 0.0
2017-Jul-11 09:58N 55°42' E 012°36'0 0.0
2017-Jul-11 09:28N 55°42' E 012°36'0 0.0
2017-Jul-11 09:00N 55°42' E 012°36'0 0.0
2017-Jul-11 08:30N 55°42' E 012°36'0 0.0
2017-Jul-11 08:00N 55°42' E 012°36'0 0.0
2017-Jul-11 07:30N 55°42' E 012°36'0 0.0
2017-Jul-11 07:00N 55°42' E 012°36'0 0.0
2017-Jul-11 06:29N 55°42' E 012°36'0 0.0
2017-Jul-11 06:00N 55°42' E 012°36'0 0.6
2017-Jul-11 05:30N 55°42' E 012°36'4 7.7
2017-Jul-11 05:00N 55°45' E 012°41'611.6
2017-Jul-11 04:30N 55°51' E 012°41'714.5
2017-Jul-11 04:00N 55°58' E 012°40'5296.8
2017-Jul-11 04:00N 55°54' E 012°36'1122.8 270 / 101006.610.8 16.015.114.0
2017-Jul-11 03:30N 56°05' E 012°35'815.3
2017-Jul-11 03:00N 56°10' E 012°24'4220.8
2017-Jul-11 03:00N 56°06' E 012°24'1021.1 250 / 71006.910.8 16.015.114.0
2017-Jul-11 02:30N 56°14' E 012°12'815.4
2017-Jul-11 02:00N 56°19' E 012°02'915.4
2017-Jul-11 01:27N 56°27' E 011°58'715.4
2017-Jul-11 00:59N 56°34' E 011°56'1115.5
2017-Jul-11 00:17N 56°45' E 011°52'615.9
2017-Jul-10 23:55N 56°51' E 011°48'715.9
2017-Jul-10 23:28N 56°57' E 011°44'716.1
2017-Jul-10 23:00N 57°04' E 011°39'816.1
2017-Jul-10 22:30N 57°12' E 011°35'816.3
2017-Jul-10 22:00N 57°20' E 011°30'816.3
2017-Jul-10 21:30N 57°27' E 011°24'816.3
2017-Jul-10 21:00N 57°33' E 011°13'816.5
2017-Jul-10 20:31N 57°38' E 011°02'916.8
2017-Jul-10 20:00N 57°46' E 010°54'816.9
2017-Jul-10 19:30N 57°51' E 010°42'816.6
2017-Jul-10 19:00N 57°53' E 010°27'1019.2
2017-Jul-10 18:30N 57°52' E 010°09'  
Track history (hours):
 
Tides and Currents Weather Stations Pressure Air Temp Water Temp Dewpoint Dewpoint Depression Visibility Wind Speed Wind Dir Waves Ship Positions

Crown Princess

Last reported at 2017-Jul-20 18:28 UTC. Time now 2017-Jul-20 18:38 UTC.
Position N 57°53' E 010°15'.

Type: Ship. MMSI: 310500000.

Date/timePositionNaut miles runAvg speedWind from/ knotsBaromVisibWave heightAir tempDewpointWater temp
2017-Jul-20 18:28N 57°53' E 010°15'920.6
2017-Jul-20 18:00N 57°53' E 010°33'1120.6
2017-Jul-20 17:29N 57°48' E 010°51'1020.6
2017-Jul-20 17:00N 57°41' E 011°04'1020.9
2017-Jul-20 16:30N 57°33' E 011°17'1020.3
2017-Jul-20 16:00N 57°25' E 011°29'1121.1
2017-Jul-20 15:30N 57°15' E 011°35'1120.7
2017-Jul-20 14:58N 57°05' E 011°42'1920.2
2017-Jul-20 14:00N 56°47' E 011°56'918.7
2017-Jul-20 13:30N 56°40' E 011°44'1119.7
2017-Jul-20 12:57N 56°33' E 011°30'919.4
2017-Jul-20 12:29N 56°27' E 011°17'1218.4
2017-Jul-20 11:49N 56°16' E 011°07'1420.8
2017-Jul-20 11:09N 56°02' E 011°06'420.8
2017-Jul-20 10:58N 55°59' E 011°03'1020.9
2017-Jul-20 10:30N 55°51' E 010°52'1120.6
2017-Jul-20 09:58N 55°41' E 010°47'920.1
2017-Jul-20 09:30N 55°32' E 010°52'1019.6
2017-Jul-20 08:58N 55°23' E 011°02'1017.8
2017-Jul-20 08:25N 55°13' E 011°06'4 9.9
2017-Jul-20 08:00N 55°10' E 011°03'815.7
2017-Jul-20 07:31N 55°02' E 011°02'917.4
2017-Jul-20 07:01N 54°54' E 010°54'917.7
2017-Jul-20 06:31N 54°46' E 010°53'917.0
2017-Jul-20 06:01N 54°39' E 011°02'1121.6
2017-Jul-20 05:31N 54°34' E 011°18'1121.8
2017-Jul-20 05:01N 54°29' E 011°35'1620.6
2017-Jul-20 04:15N 54°26' E 012°02'518.1
2017-Jul-20 03:58N 54°28' E 012°10'1318.8
2017-Jul-20 03:16N 54°40' E 012°20'520.1
2017-Jul-20 03:00N 54°43' E 012°27'1020.0
2017-Jul-20 02:30N 54°48' E 012°43'1020.5
2017-Jul-20 02:00N 54°47' E 013°00'1121.3
2017-Jul-20 01:31N 54°47' E 013°18'1121.1
2017-Jul-20 01:01N 54°45' E 013°37'1121.0
2017-Jul-20 00:30N 54°42' E 013°54'1121.0
2017-Jul-20 00:00N 54°39' E 014°12'1021.1
2017-Jul-19 23:31N 54°38' E 014°30'1121.2
2017-Jul-19 23:01N 54°39' E 014°48'1121.0
2017-Jul-19 22:30N 54°40' E 015°06'1020.7
2017-Jul-19 22:00N 54°42' E 015°23'1020.8
2017-Jul-19 21:30N 54°45' E 015°41'1020.9
2017-Jul-19 21:00N 54°47' E 015°59'1121.0
2017-Jul-19 20:30N 54°48' E 016°17'1020.8
2017-Jul-19 20:00N 54°49' E 016°35'1020.9
2017-Jul-19 19:30N 54°51' E 016°53'1020.9
2017-Jul-19 19:00N 54°54' E 017°10'1020.8
2017-Jul-19 18:31N 54°56' E 017°28'1121.6
2017-Jul-19 18:00N 54°59' E 017°46'1121.5
2017-Jul-19 17:30N 54°58' E 018°05'1121.5
2017-Jul-19 17:00N 54°58' E 018°23'1021.0
2017-Jul-19 16:31N 54°55' E 018°41'1121.8
2017-Jul-19 16:00N 54°48' E 018°55'917.2
2017-Jul-19 15:30N 54°39' E 018°57'1020.1
2017-Jul-19 15:01N 54°32' E 018°46'612.7
2017-Jul-19 14:31N 54°32' E 018°35'1 2.4
2017-Jul-19 13:59N 54°32' E 018°33'0 0.0
2017-Jul-19 13:28N 54°32' E 018°33'0 0.0
2017-Jul-19 12:58N 54°32' E 018°33'0 0.0
2017-Jul-19 12:28N 54°32' E 018°33'0 0.0
2017-Jul-19 11:58N 54°32' E 018°33'0 0.0
2017-Jul-19 11:28N 54°32' E 018°33'0 0.0
2017-Jul-19 11:00N 54°32' E 018°33'0 0.0
2017-Jul-19 10:30N 54°32' E 018°33'0 0.0
2017-Jul-19 10:00N 54°32' E 018°33'0 0.0
2017-Jul-19 09:30N 54°32' E 018°33'0 0.0
2017-Jul-19 08:59N 54°32' E 018°33'0 0.0
2017-Jul-19 08:29N 54°32' E 018°33'0 0.0
2017-Jul-19 07:59N 54°32' E 018°33'0 0.0
2017-Jul-19 07:29N 54°32' E 018°33'0 0.0
2017-Jul-19 06:59N 54°32' E 018°33'0 0.0
2017-Jul-19 06:28N 54°32' E 018°33'0 0.0
2017-Jul-19 05:58N 54°32' E 018°33'0 0.0
2017-Jul-19 05:28N 54°32' E 018°33'0 0.0
2017-Jul-19 04:58N 54°32' E 018°33'0 0.4
2017-Jul-19 04:30N 54°32' E 018°33'4 8.1
2017-Jul-19 04:01N 54°32' E 018°40'510.4
2017-Jul-19 03:30N 54°33' E 018°49'611.5
2017-Jul-19 03:00N 54°38' E 018°54'611.6
2017-Jul-19 02:30N 54°43' E 018°59'611.6
2017-Jul-19 02:00N 54°49' E 019°02'6357.5
2017-Jul-19 02:00N 54°54' E 019°06'1 1.3 260 / 221015.310.8 15.513.717.0
2017-Jul-19 01:30N 54°54' E 019°05'611.0
2017-Jul-19 01:00N 54°59' E 019°08'510.9
2017-Jul-19 00:30N 55°05' E 019°10'611.3
2017-Jul-19 00:00N 55°10' E 019°13'22811.2
2017-Jul-18 03:39N 58°49' E 021°12'311.1
2017-Jul-18 03:22N 58°52' E 021°15'411.1
2017-Jul-18 03:00N 58°55' E 021°20'511.1
2017-Jul-18 02:31N 58°60' E 021°25'611.1
2017-Jul-18 02:01N 59°04' E 021°31'611.1
2017-Jul-18 01:30N 59°09' E 021°37'611.1
2017-Jul-18 01:00N 59°13' E 021°45'510.4
2017-Jul-18 00:31N 59°16' E 021°53'510.4
2017-Jul-18 00:01N 59°19' E 022°01'510.8
2017-Jul-17 23:31N 59°23' E 022°09'510.6
2017-Jul-17 23:00N 59°26' E 022°17'510.5
2017-Jul-17 22:30N 59°29' E 022°25'510.5
2017-Jul-17 22:00N 59°32' E 022°35'510.8
2017-Jul-17 21:31N 59°34' E 022°45'611.0
2017-Jul-17 21:00N 59°35' E 022°55'612.5
2017-Jul-17 20:31N 59°36' E 023°07'611.5
2017-Jul-17 20:01N 59°38' E 023°18'611.1
2017-Jul-17 19:31N 59°39' E 023°29'611.5
2017-Jul-17 19:00N 59°41' E 023°40'611.6
2017-Jul-17 18:31N 59°43' E 023°51'611.4
2017-Jul-17 18:01N 59°44' E 024°01'611.2
2017-Jul-17 17:31N 59°46' E 024°12'611.1
2017-Jul-17 17:00N 59°47' E 024°23'611.1
2017-Jul-17 16:31N 59°48' E 024°34'611.4
2017-Jul-17 16:00N 59°50' E 024°45'510.8
2017-Jul-17 15:31N 59°52' E 024°54'611.1
2017-Jul-17 15:01N 59°57' E 024°56'611.4
2017-Jul-17 14:31N 60°03' E 024°53'611.7
2017-Jul-17 14:00N 60°09' E 024°55'0 0.3
2017-Jul-17 13:23N 60°09' E 024°55'0 0.0
2017-Jul-17 12:58N 60°09' E 024°55'0 0.0
2017-Jul-17 12:28N 60°09' E 024°55'0 0.0
2017-Jul-17 11:59N 60°09' E 024°55'0 0.0
2017-Jul-17 11:28N 60°09' E 024°55'0 0.0
2017-Jul-17 11:00N 60°09' E 024°55'0 0.0
2017-Jul-17 10:30N 60°09' E 024°55'0 0.0
2017-Jul-17 10:00N 60°09' E 024°55'0 0.0
2017-Jul-17 09:30N 60°09' E 024°55'0 0.0
2017-Jul-17 09:00N 60°09' E 024°55'0 0.0
2017-Jul-17 08:31N 60°09' E 024°55'0 0.0
2017-Jul-17 07:59N 60°09' E 024°55'0 0.0
2017-Jul-17 07:29N 60°09' E 024°55'0 0.0
2017-Jul-17 06:58N 60°09' E 024°55'0 0.0
2017-Jul-17 06:28N 60°09' E 024°55'0 0.0
2017-Jul-17 05:58N 60°09' E 024°55'0 0.0
2017-Jul-17 05:28N 60°09' E 024°55'0 0.0
2017-Jul-17 04:58N 60°09' E 024°55'0 0.0
2017-Jul-17 04:30N 60°09' E 024°55'0 1.0
2017-Jul-17 04:01N 60°09' E 024°54'4 7.1
2017-Jul-17 03:31N 60°05' E 024°54'713.6
2017-Jul-17 03:00N 59°59' E 024°57'612.2
2017-Jul-17 02:30N 59°55' E 025°07'713.9
2017-Jul-17 02:00N 59°55' E 025°21'714.8
2017-Jul-17 01:31N 59°54' E 025°36'815.8
2017-Jul-17 01:01N 59°56' E 025°51'714.2
2017-Jul-17 00:31N 59°58' E 026°05'714.3
2017-Jul-17 00:01N 59°59' E 026°19'714.2
2017-Jul-16 23:31N 60°01' E 026°33'714.3
2017-Jul-16 23:01N 60°01' E 026°47'917.7
2017-Jul-16 22:31N 59°60' E 027°05'714.9
2017-Jul-16 22:01N 60°04' E 027°17'714.8
2017-Jul-16 21:31N 60°08' E 027°30'816.2
2017-Jul-16 21:01N 60°11' E 027°44'917.9
2017-Jul-16 20:31N 60°10' E 028°02'612.7
2017-Jul-16 20:00N 60°08' E 028°14'815.0
2017-Jul-16 19:30N 60°04' E 028°27'714.9
2017-Jul-16 19:00N 60°03' E 028°42'815.2
2017-Jul-16 18:30N 60°02' E 028°57'815.0
2017-Jul-16 18:01N 60°02' E 029°12'714.8
2017-Jul-16 17:30N 60°02' E 029°27'611.8
2017-Jul-16 17:00N 60°00' E 029°38'510.3
2017-Jul-16 16:30N 59°58' E 029°47'611.8
2017-Jul-16 16:00N 59°56' E 029°58'4 8.8
2017-Jul-16 15:30N 59°57' E 030°07'2 4.3
2017-Jul-16 15:00N 59°57' E 030°11'0 0.0
2017-Jul-16 14:29N 59°57' E 030°11'0 0.0
2017-Jul-16 13:58N 59°57' E 030°11'0 0.0
2017-Jul-16 13:28N 59°57' E 030°11'0 0.0
2017-Jul-16 12:58N 59°57' E 030°11'0 0.0
2017-Jul-16 12:28N 59°57' E 030°11'0 0.0
2017-Jul-16 11:58N 59°57' E 030°11'0 0.0
2017-Jul-16 11:30N 59°57' E 030°11'0 0.0
2017-Jul-16 11:00N 59°57' E 030°11'0 0.0
2017-Jul-16 10:30N 59°57' E 030°11'0 0.0
2017-Jul-16 10:00N 59°57' E 030°11'0 0.0
2017-Jul-16 09:30N 59°57' E 030°11'0 0.0
2017-Jul-16 08:59N 59°57' E 030°11'0 0.0
2017-Jul-16 08:29N 59°57' E 030°11'0 0.0
2017-Jul-16 07:59N 59°57' E 030°11'0 0.0
2017-Jul-16 07:29N 59°57' E 030°11'0 0.0
2017-Jul-16 06:58N 59°57' E 030°11'0 0.0
2017-Jul-16 06:28N 59°57' E 030°11'0 0.0
2017-Jul-16 05:58N 59°57' E 030°11'0 0.0
2017-Jul-16 05:28N 59°57' E 030°11'0 0.0
2017-Jul-16 04:58N 59°57' E 030°11'0 0.0
2017-Jul-16 04:30N 59°57' E 030°11'0 0.0
2017-Jul-16 03:57N 59°57' E 030°11'0 0.0
2017-Jul-16 03:27N 59°57' E 030°11'0 0.0
2017-Jul-16 03:00N 59°57' E 030°11'0 0.0
2017-Jul-16 02:29N 59°57' E 030°11'0 0.0
2017-Jul-16 01:59N 59°57' E 030°11'0 0.0
2017-Jul-16 01:29N 59°57' E 030°11'0 0.0
2017-Jul-16 00:59N 59°57' E 030°11'0 0.0
2017-Jul-16 00:29N 59°57' E 030°11'0 0.0
2017-Jul-15 23:58N 59°57' E 030°11'0 0.0
2017-Jul-15 23:28N 59°57' E 030°11'0 0.0
2017-Jul-15 22:58N 59°57' E 030°11'0 0.0
2017-Jul-15 22:28N 59°57' E 030°11'0 0.0
2017-Jul-15 21:58N 59°57' E 030°11'0 0.0
2017-Jul-15 21:29N 59°57' E 030°11'0 0.0
2017-Jul-15 20:59N 59°57' E 030°11'0 0.0
2017-Jul-15 20:29N 59°57' E 030°11'0 0.0
2017-Jul-15 19:58N 59°57' E 030°11'0 0.0
2017-Jul-15 19:28N 59°57' E 030°11'0 0.0
2017-Jul-15 18:55N 59°57' E 030°11'0 0.0
2017-Jul-15 18:28N 59°57' E 030°11'0 0.0
2017-Jul-15 17:58N 59°57' E 030°11'0 0.0
2017-Jul-15 17:30N 59°57' E 030°11'0 0.0
2017-Jul-15 17:00N 59°57' E 030°11'0 0.0
2017-Jul-15 16:30N 59°57' E 030°11'0 0.0
2017-Jul-15 16:00N 59°57' E 030°11'0 0.0
2017-Jul-15 15:29N 59°57' E 030°11'0 0.0
2017-Jul-15 14:59N 59°57' E 030°11'0 0.0
2017-Jul-15 13:59N 59°57' E 030°11'0 0.0
2017-Jul-15 13:29N 59°57' E 030°11'0 0.0
2017-Jul-15 12:58N 59°57' E 030°11'0 0.0
2017-Jul-15 12:28N 59°57' E 030°11'0 0.0
2017-Jul-15 11:58N 59°57' E 030°11'0 0.0
2017-Jul-15 11:28N 59°57' E 030°11'0 0.0
2017-Jul-15 11:01N 59°57' E 030°11'0 0.0
2017-Jul-15 10:30N 59°57' E 030°11'0 0.0
2017-Jul-15 10:00N 59°57' E 030°11'0 0.0
2017-Jul-15 09:30N 59°57' E 030°11'0 0.0
2017-Jul-15 09:00N 59°57' E 030°11'0 0.0
2017-Jul-15 08:29N 59°57' E 030°11'0 0.0
2017-Jul-15 07:59N 59°57' E 030°11'0 0.0
2017-Jul-15 07:30N 59°57' E 030°11'0 0.0
2017-Jul-15 06:58N 59°57' E 030°11'0 0.0
2017-Jul-15 06:28N 59°57' E 030°11'0 0.0
2017-Jul-15 05:58N 59°57' E 030°11'0 0.0
2017-Jul-15 05:30N 59°57' E 030°11'0 0.0
2017-Jul-15 05:00N 59°57' E 030°11'0 0.0
2017-Jul-15 04:30N 59°57' E 030°11'0 0.0
2017-Jul-15 04:00N 59°57' E 030°11'0 0.0
2017-Jul-15 03:30N 59°57' E 030°11'0 0.4
2017-Jul-15 03:00N 59°57' E 030°11'4 7.2
2017-Jul-15 02:30N 59°56' E 030°04'5 9.1
2017-Jul-15 02:00N 59°56' E 029°55'510.0
2017-Jul-15 01:30N 59°59' E 029°46'5 9.9
2017-Jul-15 01:00N 60°00' E 029°37'510.5
2017-Jul-15 00:30N 60°01' E 029°26'713.3
2017-Jul-15 00:00N 60°02' E 029°13'815.3
2017-Jul-14 23:31N 60°02' E 028°58'815.1
2017-Jul-14 23:00N 60°02' E 028°43'815.0
2017-Jul-14 22:31N 60°03' E 028°28'714.8
2017-Jul-14 22:01N 60°07' E 028°16'815.1
2017-Jul-14 21:31N 60°09' E 028°01'815.5
2017-Jul-14 21:01N 60°11' E 027°46'816.4
2017-Jul-14 20:31N 60°07' E 027°32'816.5
2017-Jul-14 20:01N 60°03' E 027°17'815.3
2017-Jul-14 19:30N 59°59' E 027°04'714.4
2017-Jul-14 19:00N 59°59' E 026°50'815.2
2017-Jul-14 18:30N 59°59' E 026°35'917.3
2017-Jul-14 18:00N 59°56' E 026°18'918.9
2017-Jul-14 17:30N 59°54' E 026°00'1020.1
2017-Jul-14 17:01N 59°52' E 025°41'917.6
2017-Jul-14 16:30N 59°49' E 025°24'1020.5
2017-Jul-14 16:00N 59°48' E 025°04'816.0
2017-Jul-14 15:30N 59°43' E 024°51'816.7
2017-Jul-14 15:00N 59°36' E 024°41'815.7
2017-Jul-14 14:30N 59°29' E 024°46'2 3.2
2017-Jul-14 13:58N 59°27' E 024°46'0 0.0
2017-Jul-14 13:31N 59°27' E 024°46'0 0.0
2017-Jul-14 13:00N 59°27' E 024°46'0 0.0
2017-Jul-14 12:30N 59°27' E 024°46'0 0.0
2017-Jul-14 12:00N 59°27' E 024°46'0 0.0
2017-Jul-14 11:30N 59°27' E 024°46'0 0.0
2017-Jul-14 11:00N 59°27' E 024°46'0 0.0
2017-Jul-14 10:30N 59°27' E 024°46'0 0.0
2017-Jul-14 09:59N 59°27' E 024°46'0 0.0
2017-Jul-14 09:30N 59°27' E 024°46'0 0.0
2017-Jul-14 09:00N 59°27' E 024°46'0 0.0
2017-Jul-14 08:28N 59°27' E 024°46'0 0.0
2017-Jul-14 07:58N 59°27' E 024°46'0 0.0
2017-Jul-14 07:29N 59°27' E 024°46'0 0.0
2017-Jul-14 06:58N 59°27' E 024°46'0 0.0
2017-Jul-14 06:30N 59°27' E 024°46'1 1.9
2017-Jul-14 06:00N 59°28' E 024°46'611.2
2017-Jul-14 05:30N 59°30' E 024°36'613.0
2017-Jul-14 05:01N 59°30' E 024°23'714.6
2017-Jul-14 04:31N 59°29' E 024°09'816.9
2017-Jul-14 04:00N 59°29' E 023°52'816.7
2017-Jul-14 03:31N 59°28' E 023°36'1019.1
2017-Jul-14 03:00N 59°28' E 023°17'1019.9
2017-Jul-14 02:30N 59°27' E 022°57'918.8
2017-Jul-14 02:00N 59°24' E 022°40'918.8
2017-Jul-14 01:30N 59°23' E 022°21'1019.2
2017-Jul-14 01:00N 59°23' E 022°03'1019.1
2017-Jul-14 00:31N 59°24' E 021°44'918.7
2017-Jul-14 00:01N 59°25' E 021°26'815.5
2017-Jul-13 23:31N 59°25' E 021°10'816.8
2017-Jul-13 23:01N 59°26' E 020°54'1019.1
2017-Jul-13 22:30N 59°26' E 020°35'1019.3
2017-Jul-13 22:01N 59°28' E 020°16'815.4
2017-Jul-13 21:30N 59°33' E 020°05'918.5
2017-Jul-13 21:00N 59°40' E 019°53'1020.8
2017-Jul-13 20:30N 59°47' E 019°37'815.5
2017-Jul-13 20:00N 59°46' E 019°22'816.5
2017-Jul-13 19:30N 59°43' E 019°06'613.0
2017-Jul-13 19:01N 59°40' E 018°56'510.2
2017-Jul-13 18:31N 59°37' E 018°48'611.4
2017-Jul-13 18:01N 59°34' E 018°38'5 9.6
2017-Jul-13 17:31N 59°31' E 018°30'510.7
2017-Jul-13 17:00N 59°26' E 018°24'4 8.7
2017-Jul-13 16:30N 59°22' E 018°27'3 6.5
2017-Jul-13 16:01N 59°23' E 018°21'510.0
2017-Jul-13 15:30N 59°20' E 018°12'2 3.5
2017-Jul-13 14:53N 59°21' E 018°08'0 0.0
2017-Jul-13 14:29N 59°21' E 018°08'0 0.0
2017-Jul-13 13:53N 59°21' E 018°08'0 0.0
2017-Jul-13 13:23N 59°21' E 018°08'0 0.0
2017-Jul-13 12:52N 59°21' E 018°08'0 0.0
2017-Jul-13 12:22N 59°21' E 018°08'0 0.0
2017-Jul-13 11:58N 59°21' E 018°08'0 0.0
2017-Jul-13 11:28N 59°21' E 018°08'0 0.0
2017-Jul-13 10:52N 59°21' E 018°08'0 0.0
2017-Jul-13 10:27N 59°21' E 018°08'0 0.0
2017-Jul-13 09:57N 59°21' E 018°08'0 0.0
2017-Jul-13 09:27N 59°21' E 018°08'0 0.0
2017-Jul-13 08:57N 59°21' E 018°08'0 0.0
2017-Jul-13 08:27N 59°21' E 018°08'0 0.0
2017-Jul-13 07:38N 59°21' E 018°08'0 0.0
2017-Jul-13 07:26N 59°21' E 018°08'0 0.0
2017-Jul-13 06:56N 59°21' E 018°08'0 0.5
2017-Jul-13 06:30N 59°21' E 018°08'2 5.0
2017-Jul-13 06:00N 59°20' E 018°13'510.7
2017-Jul-13 05:30N 59°22' E 018°23'2 4.8
2017-Jul-13 05:00N 59°24' E 018°26'5 9.3
2017-Jul-13 04:30N 59°29' E 018°27'510.2
2017-Jul-13 04:00N 59°32' E 018°34'510.5
2017-Jul-13 03:30N 59°35' E 018°43'612.2
2017-Jul-13 02:59N 59°39' E 018°53'510.9
2017-Jul-13 02:30N 59°42' E 019°01'816.9
2017-Jul-13 02:00N 59°45' E 019°17'611.3
2017-Jul-13 01:30N 59°47' E 019°27'815.3
2017-Jul-13 01:00N 59°48' E 019°42'815.8
2017-Jul-13 00:30N 59°43' E 019°53'815.1
2017-Jul-13 00:00N 59°37' E 020°03'816.7
2017-Jul-12 23:31N 59°30' E 020°09'1019.7
2017-Jul-12 23:00N 59°21' E 020°02'1121.4
2017-Jul-12 22:31N 59°12' E 019°49'1019.9
2017-Jul-12 22:00N 59°04' E 019°37'919.0
2017-Jul-12 21:30N 58°57' E 019°26'918.3
2017-Jul-12 21:01N 58°49' E 019°16'1019.8
2017-Jul-12 20:30N 58°41' E 019°04'918.9
2017-Jul-12 20:00N 58°34' E 018°53'1020.9
2017-Jul-12 19:30N 58°25' E 018°41'917.4
2017-Jul-12 19:01N 58°18' E 018°34'1019.0
2017-Jul-12 18:31N 58°09' E 018°28'1121.9
2017-Jul-12 18:00N 57°59' E 018°19'1019.0
2017-Jul-12 17:30N 57°50' E 018°10'1018.9
2017-Jul-12 17:00N 57°42' E 018°02'7521.1
2017-Jul-12 13:27N 56°31' E 017°16'1021.3
2017-Jul-12 13:00N 56°22' E 017°11'1121.1
2017-Jul-12 12:30N 56°12' E 017°04'1121.1
2017-Jul-12 12:00N 56°05' E 016°52'1121.2
2017-Jul-12 11:30N 55°59' E 016°36'1121.1
2017-Jul-12 11:00N 55°53' E 016°20'1121.4
2017-Jul-12 10:30N 55°48' E 016°03'1122.0
2017-Jul-12 10:00N 55°43' E 015°46'1122.0
2017-Jul-12 09:30N 55°38' E 015°28'1122.1
2017-Jul-12 09:00N 55°34' E 015°10'1122.2
2017-Jul-12 08:30N 55°29' E 014°52'1121.8
2017-Jul-12 08:00N 55°23' E 014°37'1122.0
2017-Jul-12 07:30N 55°15' E 014°24'1121.9
2017-Jul-12 07:00N 55°06' E 014°13'1121.2
2017-Jul-12 06:30N 54°60' E 013°57'1122.1
2017-Jul-12 06:00N 54°56' E 013°39'1422.1
2017-Jul-12 05:21N 54°52' E 013°15'1321.8
2017-Jul-12 04:45N 54°47' E 012°54'720.6
2017-Jul-12 04:26N 54°45' E 012°43'1220.5
2017-Jul-12 03:52N 54°39' E 012°26'720.0
2017-Jul-12 03:30N 54°34' E 012°17'1817.9
2017-Jul-12 02:30N 54°24' E 011°51'1021.5
2017-Jul-12 02:00N 54°28' E 011°34'1121.4
2017-Jul-12 01:30N 54°33' E 011°18'1020.6
2017-Jul-12 01:00N 54°38' E 011°02'917.5
2017-Jul-12 00:30N 54°44' E 010°52'713.9
2017-Jul-12 00:00N 54°51' E 010°52'917.0
2017-Jul-11 23:30N 54°58' E 010°59'918.5
2017-Jul-11 23:00N 55°07' E 011°02'917.9
2017-Jul-11 22:30N 55°16' E 011°04'5614.1
2017-Jul-11 18:30N 56°08' E 011°45'1019.5
2017-Jul-11 18:00N 56°10' E 012°02'1019.3
2017-Jul-11 17:30N 56°12' E 012°19'1020.4
2017-Jul-11 17:00N 56°06' E 012°34'917.0
2017-Jul-11 16:30N 55°59' E 012°41'713.5
2017-Jul-11 16:00N 55°52' E 012°42'713.4
2017-Jul-11 15:31N 55°45' E 012°41'4 8.1
2017-Jul-11 15:01N 55°42' E 012°36'0 0.0
2017-Jul-11 14:30N 55°42' E 012°36'0 0.0
2017-Jul-11 14:00N 55°42' E 012°36'0 0.0
2017-Jul-11 13:29N 55°42' E 012°36'0 0.0
2017-Jul-11 12:59N 55°42' E 012°36'0 0.0
2017-Jul-11 12:29N 55°42' E 012°36'0 0.0
2017-Jul-11 11:59N 55°42' E 012°36'0 0.0
2017-Jul-11 11:28N 55°42' E 012°36'0 0.0
2017-Jul-11 10:58N 55°42' E 012°36'0 0.0
2017-Jul-11 10:28N 55°42' E 012°36'0 0.0
2017-Jul-11 09:58N 55°42' E 012°36'0 0.0
2017-Jul-11 09:28N 55°42' E 012°36'0 0.0
2017-Jul-11 09:00N 55°42' E 012°36'0 0.0
2017-Jul-11 08:30N 55°42' E 012°36'0 0.0
2017-Jul-11 08:00N 55°42' E 012°36'0 0.0
2017-Jul-11 07:30N 55°42' E 012°36'0 0.0
2017-Jul-11 07:00N 55°42' E 012°36'0 0.0
2017-Jul-11 06:29N 55°42' E 012°36'0 0.0
2017-Jul-11 06:00N 55°42' E 012°36'0 0.6
2017-Jul-11 05:30N 55°42' E 012°36'4 7.7
2017-Jul-11 05:00N 55°45' E 012°41'611.6
2017-Jul-11 04:30N 55°51' E 012°41'714.5
2017-Jul-11 04:00N 55°58' E 012°40'5296.8
2017-Jul-11 04:00N 55°54' E 012°36'1122.8 270 / 101006.610.8 16.015.114.0
2017-Jul-11 03:30N 56°05' E 012°35'815.3
2017-Jul-11 03:00N 56°10' E 012°24'4220.8
2017-Jul-11 03:00N 56°06' E 012°24'1021.1 250 / 71006.910.8 16.015.114.0
2017-Jul-11 02:30N 56°14' E 012°12'815.4
2017-Jul-11 02:00N 56°19' E 012°02'915.4
2017-Jul-11 01:27N 56°27' E 011°58'715.4
2017-Jul-11 00:59N 56°34' E 011°56'1115.5
2017-Jul-11 00:17N 56°45' E 011°52'615.9
2017-Jul-10 23:55N 56°51' E 011°48'715.9
2017-Jul-10 23:28N 56°57' E 011°44'716.1
2017-Jul-10 23:00N 57°04' E 011°39'816.1
2017-Jul-10 22:30N 57°12' E 011°35'816.3
2017-Jul-10 22:00N 57°20' E 011°30'816.3
2017-Jul-10 21:30N 57°27' E 011°24'816.3
2017-Jul-10 21:00N 57°33' E 011°13'816.5
2017-Jul-10 20:31N 57°38' E 011°02'916.8
2017-Jul-10 20:00N 57°46' E 010°54'816.9
2017-Jul-10 19:30N 57°51' E 010°42'816.6
2017-Jul-10 19:00N 57°53' E 010°27'1019.2
2017-Jul-10 18:30N 57°52' E 010°09'  

Dump ship's entire track history